createdAt,value
2022-08-26T00:00:07.452Z,72.22
2022-08-26T00:01:07.407Z,72.22
2022-08-26T00:02:07.507Z,72.22
2022-08-26T00:03:07.509Z,71.82
2022-08-26T00:04:07.444Z,71.92
2022-08-26T00:05:07.357Z,72.52
2022-08-26T00:06:07.310Z,72.52
2022-08-26T00:07:07.295Z,72.65
2022-08-26T00:08:07.276Z,73.02
2022-08-26T00:09:08.035Z,73.02
2022-08-26T00:10:07.268Z,73.25
2022-08-26T00:11:07.223Z,73.25
2022-08-26T00:12:07.203Z,73.15
2022-08-26T00:13:07.387Z,72.95
2022-08-26T00:14:07.164Z,73.32
2022-08-26T00:15:08.179Z,73.15
2022-08-26T00:16:07.165Z,73.45
2022-08-26T00:17:08.652Z,73.15
2022-08-26T00:18:16.734Z,73.55
2022-08-26T00:19:08.118Z,72.95
2022-08-26T00:20:07.086Z,73.65
2022-08-26T00:21:07.038Z,73.55
2022-08-26T00:22:07.017Z,73.65
2022-08-26T00:23:07.179Z,72.55
2022-08-26T00:24:06.984Z,72.95
2022-08-26T00:25:06.986Z,73.55
2022-08-26T00:26:06.943Z,73.35
2022-08-26T00:27:06.927Z,73.55
2022-08-26T00:28:06.905Z,73.35
2022-08-26T00:29:06.885Z,72.85
2022-08-26T00:30:06.896Z,73.35
2022-08-26T00:31:06.851Z,74.25
2022-08-26T00:32:06.901Z,73.05
2022-08-26T00:33:07.268Z,73.85
2022-08-26T00:34:06.793Z,73.15
2022-08-26T00:35:06.805Z,73.05
2022-08-26T00:36:06.764Z,73.35
2022-08-26T00:37:08.930Z,73.95
2022-08-26T00:38:06.719Z,73.85
2022-08-26T00:39:06.701Z,74.05
2022-08-26T00:40:06.753Z,74.45
2022-08-26T00:41:06.664Z,74.25
2022-08-26T00:42:06.645Z,74.15
2022-08-26T00:43:09.304Z,73.95
2022-08-26T00:44:06.608Z,73.99
2022-08-26T00:45:10.199Z,74.05
2022-08-26T00:46:07.613Z,74.05
2022-08-26T00:47:06.554Z,73.65
2022-08-26T00:48:06.535Z,74.15
2022-08-26T00:49:11.848Z,74.45
2022-08-26T00:50:07.521Z,74.15
2022-08-26T00:51:07.481Z,74.58
2022-08-26T00:52:06.460Z,74.08
2022-08-26T00:53:06.653Z,75.28
2022-08-26T00:54:06.427Z,74.08
2022-08-26T00:55:06.435Z,74.08
2022-08-26T00:56:06.390Z,74.08
2022-08-26T00:57:15.807Z,74.58
2022-08-26T00:58:07.352Z,74.98
2022-08-26T00:59:06.338Z,74.45
2022-08-26T01:00:06.339Z,74.85
2022-08-26T01:01:06.342Z,74.49
2022-08-26T01:02:06.299Z,74.45
2022-08-26T01:03:06.365Z,74.58
2022-08-26T01:04:07.246Z,74.68
2022-08-26T01:05:06.251Z,74.98
2022-08-26T01:06:06.212Z,74.38
2022-08-26T01:07:07.190Z,75.59
2022-08-26T01:08:06.172Z,74.98
2022-08-26T01:09:06.153Z,74.98
2022-08-26T01:10:06.162Z,75.22
2022-08-26T01:11:06.119Z,74.79
2022-08-26T01:12:06.099Z,75.28
2022-08-26T01:13:06.380Z,74.82
2022-08-26T01:14:06.062Z,75.62
2022-08-26T01:15:06.070Z,75.42
2022-08-26T01:16:06.049Z,75.92
2022-08-26T01:17:06.013Z,75.62
2022-08-26T01:18:05.987Z,75.52
2022-08-26T01:19:05.971Z,75.62
2022-08-26T01:20:06.072Z,75.62
2022-08-26T01:21:05.935Z,75.62
2022-08-26T01:22:05.919Z,75.62
2022-08-26T01:23:06.077Z,76.82
2022-08-26T01:24:05.879Z,75.92
2022-08-26T01:25:05.891Z,75.72
2022-08-26T01:26:05.844Z,75.42
2022-08-26T01:27:05.825Z,76.42
2022-08-26T01:28:05.813Z,76.65
2022-08-26T01:29:05.787Z,76.72
2022-08-26T01:30:05.841Z,76.45
2022-08-26T01:31:05.748Z,76.86
2022-08-26T01:32:05.733Z,76.15
2022-08-26T01:33:05.966Z,76.76
2022-08-26T01:34:05.694Z,76.95
2022-08-26T01:35:05.701Z,77.36
2022-08-26T01:36:05.658Z,77.49
2022-08-26T01:37:05.643Z,77.45
2022-08-26T01:38:05.620Z,77.56
2022-08-26T01:39:05.705Z,77.39
2022-08-26T01:40:05.690Z,77.69
2022-08-26T01:41:16.139Z,77.79
2022-08-26T01:42:06.542Z,77.75
2022-08-26T01:43:05.682Z,77.99
2022-08-26T01:44:05.510Z,77.89
2022-08-26T01:45:05.515Z,78.29
2022-08-26T01:46:05.515Z,78.29
2022-08-26T01:47:06.525Z,77.99
2022-08-26T01:48:05.435Z,78.19
2022-08-26T01:49:06.501Z,78.29
2022-08-26T01:50:05.431Z,78.29
2022-08-26T01:51:05.406Z,78.29
2022-08-26T01:52:05.360Z,78.29
2022-08-26T01:53:05.499Z,78.29
2022-08-26T01:54:05.335Z,78.49
2022-08-26T01:55:05.328Z,78.43
2022-08-26T01:56:05.282Z,78.83
2022-08-26T01:57:05.267Z,78.93
2022-08-26T01:58:05.311Z,79.23
2022-08-26T01:59:05.233Z,78.93
2022-08-26T02:00:05.240Z,78.83
2022-08-26T02:01:05.223Z,79.03
2022-08-26T02:02:05.170Z,78.83
2022-08-26T02:03:05.170Z,79.03
2022-08-26T02:04:05.139Z,79.63
2022-08-26T02:05:05.152Z,78.93
2022-08-26T02:06:05.102Z,78.93
2022-08-26T02:07:05.080Z,78.83
2022-08-26T02:08:05.061Z,79.03
2022-08-26T02:09:05.041Z,79.43
2022-08-26T02:10:05.051Z,79.33
2022-08-26T02:11:05.028Z,79.63
2022-08-26T02:12:04.990Z,79.43
2022-08-26T02:13:04.969Z,79.33
2022-08-26T02:14:04.962Z,78.97
2022-08-26T02:15:05.649Z,79.97
2022-08-26T02:16:04.957Z,80.17
2022-08-26T02:17:04.894Z,80.27
2022-08-26T02:18:04.871Z,80.17
2022-08-26T02:19:04.861Z,80.47
2022-08-26T02:20:04.865Z,80.36
2022-08-26T02:21:06.766Z,80.17
2022-08-26T02:22:04.796Z,80.27
2022-08-26T02:23:04.779Z,80.97
2022-08-26T02:24:04.772Z,80.67
2022-08-26T02:25:04.770Z,80.61
2022-08-26T02:26:04.721Z,81.07
2022-08-26T02:27:04.703Z,80.57
2022-08-26T02:28:04.692Z,81.47
2022-08-26T02:29:04.664Z,81.27
2022-08-26T02:30:04.672Z,80.91
2022-08-26T02:31:04.720Z,80.91
2022-08-26T02:32:04.605Z,81.71
2022-08-26T02:33:04.636Z,82.21
2022-08-26T02:34:04.571Z,82.01
2022-08-26T02:35:04.574Z,81.11
2022-08-26T02:36:04.543Z,81.41
2022-08-26T02:37:04.510Z,80.80
2022-08-26T02:38:10.214Z,81.71
2022-08-26T02:39:06.481Z,81.51
2022-08-26T02:40:04.536Z,81.51
2022-08-26T02:41:04.441Z,82.01
2022-08-26T02:42:04.445Z,81.61
2022-08-26T02:43:04.402Z,81.81
2022-08-26T02:44:04.378Z,82.01
2022-08-26T02:45:04.393Z,81.41
2022-08-26T02:46:04.338Z,81.91
2022-08-26T02:47:04.378Z,81.81
2022-08-26T02:48:04.305Z,81.51
2022-08-26T02:49:04.287Z,81.81
2022-08-26T02:50:04.292Z,81.91
2022-08-26T02:51:04.249Z,81.71
2022-08-26T02:52:04.227Z,81.71
2022-08-26T02:53:04.255Z,82.31
2022-08-26T02:54:04.190Z,81.61
2022-08-26T02:55:04.199Z,81.71
2022-08-26T02:56:04.155Z,81.81
2022-08-26T02:57:04.134Z,81.81
2022-08-26T02:58:04.113Z,81.01
2022-08-26T02:59:04.090Z,81.11
2022-08-26T03:00:04.101Z,82.01
2022-08-26T03:01:04.897Z,82.65
2022-08-26T03:02:04.077Z,82.79
2022-08-26T03:03:04.059Z,82.59
2022-08-26T03:04:04.004Z,83.19
2022-08-26T03:05:04.007Z,82.95
2022-08-26T03:06:03.962Z,83.09
2022-08-26T03:07:03.943Z,82.89
2022-08-26T03:08:03.925Z,82.15
2022-08-26T03:09:03.903Z,82.69
2022-08-26T03:10:08.136Z,82.39
2022-08-26T03:11:03.869Z,83.29
2022-08-26T03:12:03.848Z,83.09
2022-08-26T03:13:05.186Z,82.99
2022-08-26T03:14:03.879Z,83.39
2022-08-26T03:15:17.295Z,83.59
2022-08-26T03:16:04.804Z,83.73
2022-08-26T03:17:03.762Z,83.73
2022-08-26T03:18:03.745Z,84.33
2022-08-26T03:19:03.719Z,84.33
2022-08-26T03:20:03.739Z,85.53
2022-08-26T03:21:03.682Z,85.53
2022-08-26T03:22:03.664Z,85.33
2022-08-26T03:23:03.660Z,85.39
2022-08-26T03:24:03.628Z,84.39
2022-08-26T03:25:03.631Z,84.29
2022-08-26T03:26:03.587Z,83.89
2022-08-26T03:27:05.826Z,83.99
2022-08-26T03:28:03.552Z,83.49
2022-08-26T03:29:03.535Z,83.95
2022-08-26T03:30:03.541Z,83.75
2022-08-26T03:31:03.568Z,83.25
2022-08-26T03:32:03.474Z,83.95
2022-08-26T03:33:03.458Z,83.45
2022-08-26T03:34:03.438Z,83.75
2022-08-26T03:35:03.446Z,83.45
2022-08-26T03:36:03.397Z,83.49
2022-08-26T03:37:03.377Z,83.29
2022-08-26T03:38:03.363Z,83.19
2022-08-26T03:39:03.341Z,83.59
2022-08-26T03:40:03.417Z,83.49
2022-08-26T03:41:03.298Z,83.59
2022-08-26T03:42:03.285Z,83.29
2022-08-26T03:43:03.263Z,83.39
2022-08-26T03:44:03.415Z,83.49
2022-08-26T03:45:03.251Z,83.29
2022-08-26T03:46:03.236Z,83.69
2022-08-26T03:47:03.187Z,84.09
2022-08-26T03:48:03.167Z,84.43
2022-08-26T03:49:03.148Z,84.19
2022-08-26T03:50:03.163Z,84.83
2022-08-26T03:51:03.213Z,84.69
2022-08-26T03:52:03.121Z,84.39
2022-08-26T03:53:03.073Z,84.53
2022-08-26T03:54:03.068Z,84.49
2022-08-26T03:55:03.054Z,84.13
2022-08-26T03:56:03.014Z,84.63
2022-08-26T03:57:02.987Z,84.43
2022-08-26T03:58:02.971Z,84.43
2022-08-26T03:59:02.953Z,84.33
2022-08-26T04:00:02.934Z,84.33
2022-08-26T04:01:02.942Z,84.33
2022-08-26T04:02:02.956Z,84.74
2022-08-26T04:03:03.999Z,84.43
2022-08-26T04:04:03.274Z,84.43
2022-08-26T04:05:02.870Z,85.33
2022-08-26T04:06:02.817Z,85.44
2022-08-26T04:07:02.797Z,85.24
2022-08-26T04:08:02.775Z,85.33
2022-08-26T04:09:02.757Z,85.13
2022-08-26T04:10:02.742Z,85.24
2022-08-26T04:11:02.745Z,85.33
2022-08-26T04:12:02.700Z,85.44
2022-08-26T04:13:02.683Z,85.44
2022-08-26T04:14:02.668Z,85.24
2022-08-26T04:15:02.841Z,85.17
2022-08-26T04:16:02.721Z,85.24
2022-08-26T04:17:02.605Z,85.27
2022-08-26T04:18:02.587Z,85.13
2022-08-26T04:19:02.563Z,85.24
2022-08-26T04:20:02.554Z,85.38
2022-08-26T04:21:02.543Z,85.53
2022-08-26T04:22:04.502Z,85.13
2022-08-26T04:23:02.512Z,85.44
2022-08-26T04:24:03.651Z,85.44
2022-08-26T04:25:02.444Z,85.53
2022-08-26T04:26:02.452Z,84.83
2022-08-26T04:27:02.408Z,84.93
2022-08-26T04:28:02.388Z,84.57
2022-08-26T04:29:02.374Z,84.37
2022-08-26T04:30:02.353Z,84.37
2022-08-26T04:31:02.371Z,84.33
2022-08-26T04:32:02.308Z,84.47
2022-08-26T04:33:02.325Z,84.97
2022-08-26T04:34:02.270Z,84.43
2022-08-26T04:35:02.250Z,85.24
2022-08-26T04:36:02.256Z,85.44
2022-08-26T04:37:02.214Z,85.33
2022-08-26T04:38:02.194Z,84.83
2022-08-26T04:39:02.171Z,85.24
2022-08-26T04:40:02.254Z,85.53
2022-08-26T04:41:02.161Z,84.53
2022-08-26T04:42:02.114Z,84.43
2022-08-26T04:43:02.148Z,84.43
2022-08-26T04:44:02.077Z,84.43
2022-08-26T04:45:02.059Z,84.33
2022-08-26T04:46:02.126Z,84.19
2022-08-26T04:47:02.020Z,83.79
2022-08-26T04:48:01.996Z,83.21
2022-08-26T04:49:01.980Z,82.91
2022-08-26T04:50:02.120Z,81.57
2022-08-26T04:51:01.966Z,80.99
2022-08-26T04:52:01.931Z,79.96
2022-08-26T04:53:01.941Z,78.72
2022-08-26T04:54:01.885Z,77.88
2022-08-26T04:55:01.877Z,76.98
2022-08-26T04:56:01.883Z,76.01
2022-08-26T04:57:01.823Z,74.88
2022-08-26T04:58:01.799Z,74.04
2022-08-26T04:59:01.785Z,73.11
2022-08-26T05:00:01.767Z,72.48
2022-08-26T05:01:01.768Z,71.51
2022-08-26T05:02:01.805Z,69.92
2022-08-26T05:03:01.794Z,69.29
2022-08-26T05:04:01.770Z,69.49
2022-08-26T05:05:01.668Z,68.63
2022-08-26T05:06:01.677Z,68.23
2022-08-26T05:07:02.883Z,67.21
2022-08-26T05:08:01.615Z,66.28
2022-08-26T05:09:01.627Z,66.48
2022-08-26T05:10:01.580Z,66.68
2022-08-26T05:11:01.586Z,66.61
2022-08-26T05:12:01.543Z,67.14
2022-08-26T05:13:01.578Z,67.64
2022-08-26T05:14:02.252Z,67.83
2022-08-26T05:15:02.486Z,67.21
2022-08-26T05:16:01.601Z,67.01
2022-08-26T05:17:01.457Z,66.48
2022-08-26T05:18:01.433Z,66.08
2022-08-26T05:19:01.415Z,66.45
2022-08-26T05:20:01.393Z,65.72
2022-08-26T05:21:01.399Z,66.12
2022-08-26T05:22:01.355Z,65.62
2022-08-26T05:23:01.357Z,66.12
2022-08-26T05:24:01.315Z,65.42
2022-08-26T05:25:01.295Z,65.30
2022-08-26T05:26:01.305Z,65.17
2022-08-26T05:27:01.263Z,64.34
2022-08-26T05:28:01.248Z,63.49
2022-08-26T05:29:01.222Z,61.55
2022-08-26T05:30:01.206Z,60.80
2022-08-26T05:31:01.274Z,60.41
2022-08-26T05:32:01.174Z,59.06
2022-08-26T05:33:01.146Z,57.95
2022-08-26T05:34:03.592Z,58.05
2022-08-26T05:35:01.118Z,58.25
2022-08-26T05:36:01.128Z,58.60
2022-08-26T05:37:01.079Z,59.19
2022-08-26T05:38:01.062Z,59.32
2022-08-26T05:39:01.045Z,59.91
2022-08-26T05:40:01.059Z,60.70
2022-08-26T05:41:01.033Z,59.71
2022-08-26T05:42:00.986Z,59.39
2022-08-26T05:43:00.968Z,59.36
2022-08-26T05:44:00.955Z,57.63
2022-08-26T05:45:00.934Z,57.11
2022-08-26T05:46:00.944Z,57.87
2022-08-26T05:47:00.901Z,57.05
2022-08-26T05:48:00.882Z,55.26
2022-08-26T05:49:00.863Z,55.33
2022-08-26T05:50:00.847Z,55.79
2022-08-26T05:51:00.862Z,54.49
2022-08-26T05:52:00.813Z,53.19
2022-08-26T05:53:00.793Z,53.16
2022-08-26T05:54:00.776Z,52.28
2022-08-26T05:55:00.769Z,52.33
2022-08-26T05:56:00.769Z,51.25
2022-08-26T05:57:00.726Z,50.83
2022-08-26T05:58:02.677Z,51.12
2022-08-26T05:59:00.681Z,51.05
2022-08-26T06:00:00.679Z,48.99
2022-08-26T06:01:00.687Z,50.46
2022-08-26T06:02:00.652Z,50.59
2022-08-26T06:03:00.658Z,51.46
2022-08-26T06:04:00.596Z,52.45
2022-08-26T06:05:00.578Z,50.46
2022-08-26T06:06:00.599Z,50.24
2022-08-26T06:07:00.545Z,49.65
2022-08-26T06:08:00.526Z,49.33
2022-08-26T06:09:00.505Z,50.88
2022-08-26T06:10:21.620Z,48.90
2022-08-26T06:11:02.507Z,49.77
2022-08-26T06:12:00.457Z,48.90
2022-08-26T06:13:04.398Z,49.21
2022-08-26T06:14:03.739Z,49.41
2022-08-26T06:15:01.405Z,50.93
2022-08-26T06:16:00.440Z,50.46
2022-08-26T06:17:00.378Z,51.61
2022-08-26T06:18:00.354Z,50.34
2022-08-26T06:19:00.337Z,49.21
2022-08-26T06:20:00.322Z,48.48
2022-08-26T06:21:00.331Z,47.46
2022-08-26T06:22:00.287Z,46.63
2022-08-26T06:23:00.268Z,45.56
2022-08-26T06:24:00.253Z,45.36
2022-08-26T06:25:00.238Z,45.97
2022-08-26T06:26:00.245Z,46.36
2022-08-26T06:27:00.207Z,46.26
2022-08-26T06:28:00.189Z,46.07
2022-08-26T06:29:00.175Z,45.64
2022-08-26T06:30:00.162Z,44.54
2022-08-26T06:31:00.235Z,43.93
2022-08-26T06:32:00.122Z,43.11
2022-08-26T06:33:00.107Z,43.09
2022-08-26T06:34:00.092Z,42.63
2022-08-26T06:35:00.075Z,43.89
2022-08-26T06:36:00.096Z,43.71
2022-08-26T06:37:01.328Z,44.40
2022-08-26T06:38:00.028Z,43.70
2022-08-26T06:39:00.008Z,42.31
2022-08-26T06:40:00.021Z,43.07
2022-08-26T06:41:00.007Z,43.15
2022-08-26T06:41:59.963Z,42.18
2022-08-26T06:42:59.948Z,42.44
2022-08-26T06:43:59.938Z,41.77
2022-08-26T06:44:59.943Z,42.58
2022-08-26T06:46:00.015Z,43.30
2022-08-26T06:46:59.884Z,45.06
2022-08-26T06:47:59.876Z,44.81
2022-08-26T06:48:59.848Z,44.30
2022-08-26T06:49:59.836Z,43.67
2022-08-26T06:50:59.819Z,44.04
2022-08-26T06:51:59.872Z,43.26
2022-08-26T06:52:59.790Z,43.24
2022-08-26T06:53:59.778Z,42.54
2022-08-26T06:54:59.758Z,43.34
2022-08-26T06:55:59.748Z,42.15
2022-08-26T06:56:59.755Z,41.55
2022-08-26T06:57:59.712Z,41.24
2022-08-26T06:58:59.698Z,41.08
2022-08-26T06:59:59.682Z,39.11
2022-08-26T07:01:03.771Z,38.12
2022-08-26T07:02:01.723Z,38.39
2022-08-26T07:02:59.689Z,37.82
2022-08-26T07:03:59.624Z,38.73
2022-08-26T07:04:59.604Z,41.36
2022-08-26T07:05:59.590Z,41.94
2022-08-26T07:06:59.603Z,41.98
2022-08-26T07:07:59.561Z,42.87
2022-08-26T07:08:59.545Z,43.11
2022-08-26T07:09:59.536Z,43.01
2022-08-26T07:10:59.518Z,42.65
2022-08-26T07:11:59.531Z,42.76
2022-08-26T07:12:59.487Z,44.68
2022-08-26T07:13:59.469Z,45.31
2022-08-26T07:14:59.457Z,43.71
2022-08-26T07:16:03.033Z,44.46
2022-08-26T07:16:59.458Z,42.88
2022-08-26T07:17:59.412Z,43.76
2022-08-26T07:18:59.388Z,42.38
2022-08-26T07:20:00.381Z,43.04
2022-08-26T07:20:59.369Z,42.82
2022-08-26T07:21:59.379Z,42.02
2022-08-26T07:22:59.333Z,42.72
2022-08-26T07:24:01.620Z,42.21
2022-08-26T07:25:00.300Z,43.91
2022-08-26T07:25:59.282Z,42.60
2022-08-26T07:26:59.301Z,41.42
2022-08-26T07:27:59.257Z,42.02
2022-08-26T07:28:59.420Z,43.15
2022-08-26T07:29:59.227Z,42.98
2022-08-26T07:30:59.289Z,42.80
2022-08-26T07:31:59.226Z,43.37
2022-08-26T07:32:59.189Z,43.57
2022-08-26T07:33:59.166Z,43.59
2022-08-26T07:34:59.157Z,44.15
2022-08-26T07:35:59.132Z,43.88
2022-08-26T07:36:59.163Z,43.18
2022-08-26T07:37:59.102Z,43.15
2022-08-26T07:38:59.094Z,42.65
2022-08-26T07:39:59.128Z,42.02
2022-08-26T07:40:59.060Z,41.83
2022-08-26T07:41:59.073Z,42.49
2022-08-26T07:42:59.029Z,41.18
2022-08-26T07:43:59.009Z,41.16
2022-08-26T07:44:59.000Z,39.01
2022-08-26T07:45:58.976Z,40.08
2022-08-26T07:46:58.987Z,41.33
2022-08-26T07:47:58.941Z,40.87
2022-08-26T07:48:58.966Z,42.93
2022-08-26T07:49:58.919Z,43.29
2022-08-26T07:50:58.900Z,43.11
2022-08-26T07:51:58.908Z,44.09
2022-08-26T07:52:58.880Z,42.97
2022-08-26T07:53:58.852Z,42.56
2022-08-26T07:54:58.836Z,42.23
2022-08-26T07:55:58.821Z,41.12
2022-08-26T07:56:58.835Z,40.17
2022-08-26T07:57:58.795Z,41.55
2022-08-26T07:58:58.777Z,42.50
2022-08-26T07:59:58.761Z,41.06
2022-08-26T08:00:58.743Z,42.03
2022-08-26T08:01:58.809Z,42.33
2022-08-26T08:02:58.714Z,42.52
2022-08-26T08:03:58.699Z,41.36
2022-08-26T08:04:58.829Z,42.30
2022-08-26T08:05:58.674Z,40.81
2022-08-26T08:06:58.682Z,41.47
2022-08-26T08:08:00.811Z,39.14
2022-08-26T08:08:59.627Z,40.61
2022-08-26T08:09:58.607Z,40.89
2022-08-26T08:10:58.588Z,42.21
2022-08-26T08:11:58.602Z,42.57
2022-08-26T08:12:58.562Z,43.47
2022-08-26T08:13:58.551Z,42.22
2022-08-26T08:14:58.534Z,43.19
2022-08-26T08:15:58.515Z,42.90
2022-08-26T08:16:58.571Z,42.93
2022-08-26T08:18:00.647Z,44.26
2022-08-26T08:18:59.470Z,45.26
2022-08-26T08:19:58.452Z,42.99
2022-08-26T08:21:10.835Z,44.09
2022-08-26T08:21:59.454Z,42.77
2022-08-26T08:22:58.406Z,42.63
2022-08-26T08:23:58.404Z,42.79
2022-08-26T08:24:58.387Z,43.71
2022-08-26T08:25:58.366Z,44.34
2022-08-26T08:26:58.377Z,46.67
2022-08-26T08:27:58.327Z,47.42
2022-08-26T08:28:58.312Z,51.17
2022-08-26T08:29:58.328Z,50.88
2022-08-26T08:30:58.297Z,51.52
2022-08-26T08:31:59.900Z,52.28
2022-08-26T08:32:58.277Z,49.36
2022-08-26T08:33:58.263Z,50.49
2022-08-26T08:34:58.225Z,48.80
2022-08-26T08:35:58.210Z,48.19
2022-08-26T08:36:58.216Z,46.97
2022-08-26T08:37:58.173Z,45.82
2022-08-26T08:38:58.160Z,45.61
2022-08-26T08:39:58.186Z,43.63
2022-08-26T08:40:58.125Z,44.63
2022-08-26T08:41:58.137Z,45.21
2022-08-26T08:42:58.129Z,43.77
2022-08-26T08:43:58.077Z,46.72
2022-08-26T08:44:58.060Z,47.01
2022-08-26T08:45:58.103Z,45.89
2022-08-26T08:46:58.074Z,44.48
2022-08-26T08:47:58.037Z,45.72
2022-08-26T08:48:57.997Z,44.53
2022-08-26T08:49:57.991Z,44.77
2022-08-26T08:50:57.999Z,47.67
2022-08-26T08:51:57.974Z,48.74
2022-08-26T08:52:57.937Z,48.92
2022-08-26T08:53:57.916Z,49.73
2022-08-26T08:54:57.931Z,49.82
2022-08-26T08:55:57.887Z,49.26
2022-08-26T08:56:57.903Z,51.32
2022-08-26T08:58:01.659Z,51.97
2022-08-26T08:58:57.840Z,51.97
2022-08-26T08:59:57.818Z,52.55
2022-08-26T09:00:57.834Z,53.05
2022-08-26T09:01:57.835Z,54.13
2022-08-26T09:02:57.768Z,53.59
2022-08-26T09:03:57.751Z,54.60
2022-08-26T09:04:57.748Z,53.64
2022-08-26T09:05:57.715Z,52.01
2022-08-26T09:07:57.683Z,51.12
2022-08-26T09:08:57.694Z,53.24
2022-08-26T09:09:57.648Z,53.61
2022-08-26T09:10:57.688Z,51.67
2022-08-26T09:11:57.678Z,49.77
2022-08-26T09:12:57.599Z,51.42
2022-08-26T09:13:57.585Z,51.79
2022-08-26T09:14:57.562Z,52.11
2022-08-26T09:15:57.543Z,49.07
2022-08-26T09:16:57.618Z,49.38
2022-08-26T09:17:57.514Z,48.94
2022-08-26T09:18:57.496Z,47.72
2022-08-26T09:19:57.492Z,48.53
2022-08-26T09:20:58.460Z,47.06
2022-08-26T09:21:57.469Z,46.36
2022-08-26T09:22:57.436Z,44.30
2022-08-26T09:23:57.407Z,45.72
2022-08-26T09:24:57.414Z,46.23
2022-08-26T09:25:57.413Z,47.25
2022-08-26T09:26:57.381Z,47.17
2022-08-26T09:27:57.335Z,48.45
2022-08-26T09:28:57.318Z,49.14
2022-08-26T09:29:57.299Z,46.66
2022-08-26T09:30:57.334Z,47.60
2022-08-26T09:31:57.290Z,46.62
2022-08-26T09:32:57.246Z,45.72
2022-08-26T09:33:57.248Z,45.64
2022-08-26T09:34:57.209Z,47.37
2022-08-26T09:35:57.198Z,47.77
2022-08-26T09:36:57.217Z,46.91
2022-08-26T09:37:57.163Z,47.47
2022-08-26T09:38:57.139Z,47.57
2022-08-26T09:39:57.187Z,47.27
2022-08-26T09:40:59.246Z,48.74
2022-08-26T09:41:57.132Z,46.94
2022-08-26T09:42:57.082Z,47.26
2022-08-26T09:43:57.051Z,46.25
2022-08-26T09:44:57.048Z,46.52
2022-08-26T09:45:59.513Z,45.93
2022-08-26T09:46:58.101Z,46.13
2022-08-26T09:47:56.984Z,46.34
2022-08-26T09:48:56.967Z,46.15
2022-08-26T09:49:56.954Z,44.37
2022-08-26T09:50:56.939Z,45.91
2022-08-26T09:51:56.941Z,45.98
2022-08-26T09:52:56.909Z,45.52
2022-08-26T09:53:56.885Z,45.86
2022-08-26T09:54:56.869Z,46.25
2022-08-26T09:55:56.848Z,47.59
2022-08-26T09:56:56.865Z,47.22
2022-08-26T09:57:57.524Z,47.69
2022-08-26T09:58:56.800Z,46.00
2022-08-26T09:59:56.775Z,48.06
2022-08-26T10:00:56.853Z,45.98
2022-08-26T10:01:56.873Z,46.00
2022-08-26T10:02:58.135Z,47.27
2022-08-26T10:03:57.764Z,47.10
2022-08-26T10:04:56.689Z,45.31
2022-08-26T10:05:56.681Z,46.37
2022-08-26T10:06:56.690Z,44.38
2022-08-26T10:07:56.635Z,45.52
2022-08-26T10:08:56.620Z,45.47
2022-08-26T10:09:56.609Z,43.99
2022-08-26T10:10:56.584Z,43.20
2022-08-26T10:11:56.595Z,42.83
2022-08-26T10:12:56.554Z,44.20
2022-08-26T10:13:56.530Z,44.23
2022-08-26T10:14:56.520Z,44.66
2022-08-26T10:15:56.502Z,45.53
2022-08-26T10:16:56.639Z,47.07
2022-08-26T10:17:56.462Z,47.51
2022-08-26T10:18:59.918Z,49.75
2022-08-26T10:19:57.899Z,47.34
2022-08-26T10:20:57.412Z,47.10
2022-08-26T10:21:56.424Z,46.12
2022-08-26T10:22:56.379Z,45.63
2022-08-26T10:23:56.363Z,47.25
2022-08-26T10:24:56.359Z,47.88
2022-08-26T10:25:58.932Z,48.57
2022-08-26T10:26:56.343Z,47.29
2022-08-26T10:27:56.303Z,48.69
2022-08-26T10:28:56.277Z,49.35
2022-08-26T10:29:56.264Z,49.04
2022-08-26T10:30:56.286Z,46.14
2022-08-26T10:32:02.422Z,46.34
2022-08-26T10:32:57.206Z,45.83
2022-08-26T10:33:58.852Z,45.39
2022-08-26T10:34:57.178Z,44.78
2022-08-26T10:35:56.162Z,46.64
2022-08-26T10:37:13.937Z,45.44
2022-08-26T10:37:58.131Z,44.05
2022-08-26T10:38:56.106Z,44.44
2022-08-26T10:39:58.664Z,45.19
2022-08-26T10:40:57.080Z,45.90
2022-08-26T10:41:56.084Z,46.81
2022-08-26T10:42:56.043Z,46.22
2022-08-26T10:43:56.017Z,46.63
2022-08-26T10:44:58.593Z,46.75
2022-08-26T10:45:56.047Z,47.74
2022-08-26T10:46:56.004Z,47.03
2022-08-26T10:47:55.964Z,46.12
2022-08-26T10:48:55.937Z,46.78
2022-08-26T10:50:00.420Z,46.78
2022-08-26T10:50:57.896Z,46.30
2022-08-26T10:51:55.912Z,46.22
2022-08-26T10:52:55.857Z,46.22
2022-08-26T10:53:55.854Z,46.81
2022-08-26T10:54:55.824Z,46.22
2022-08-26T10:55:55.832Z,45.92
2022-08-26T10:56:55.816Z,46.22
2022-08-26T10:57:55.770Z,45.95
2022-08-26T10:58:55.752Z,47.80
2022-08-26T10:59:55.739Z,48.89
2022-08-26T11:00:55.873Z,50.07
2022-08-26T11:01:55.736Z,47.61
2022-08-26T11:02:55.723Z,48.89
2022-08-26T11:03:57.943Z,47.17
2022-08-26T11:04:55.646Z,46.95
2022-08-26T11:05:55.632Z,47.27
2022-08-26T11:06:55.641Z,47.25
2022-08-26T11:07:55.598Z,46.46
2022-08-26T11:08:55.577Z,47.13
2022-08-26T11:09:55.553Z,47.30
2022-08-26T11:10:55.540Z,47.96
2022-08-26T11:11:55.554Z,46.20
2022-08-26T11:12:55.505Z,44.82
2022-08-26T11:13:55.493Z,45.63
2022-08-26T11:14:59.065Z,46.91
2022-08-26T11:15:55.448Z,47.45
2022-08-26T11:16:55.508Z,46.34
2022-08-26T11:17:55.408Z,45.42
2022-08-26T11:18:55.404Z,44.62
2022-08-26T11:20:01.478Z,43.34
2022-08-26T11:20:57.359Z,43.05
2022-08-26T11:21:55.372Z,42.85
2022-08-26T11:22:55.322Z,43.76
2022-08-26T11:23:55.307Z,44.05
2022-08-26T11:24:55.293Z,45.42
2022-08-26T11:25:55.267Z,45.40
2022-08-26T11:26:56.693Z,44.32
2022-08-26T11:27:55.236Z,45.50
2022-08-26T11:28:55.219Z,45.59
2022-08-26T11:29:55.195Z,45.18
2022-08-26T11:30:58.132Z,43.62
2022-08-26T11:31:56.325Z,44.10
2022-08-26T11:32:55.148Z,44.20
2022-08-26T11:33:55.130Z,43.99
2022-08-26T11:34:55.131Z,43.69
2022-08-26T11:35:55.093Z,44.09
2022-08-26T11:36:55.108Z,43.20
2022-08-26T11:37:55.060Z,44.18
2022-08-26T11:38:55.049Z,43.03
2022-08-26T11:39:57.195Z,43.42
2022-08-26T11:40:56.004Z,44.10
2022-08-26T11:41:54.992Z,43.52
2022-08-26T11:42:55.000Z,44.79
2022-08-26T11:43:54.964Z,43.52
2022-08-26T11:44:56.190Z,42.89
2022-08-26T11:45:54.956Z,43.40
2022-08-26T11:46:54.906Z,43.69
2022-08-26T11:47:54.915Z,43.62
2022-08-26T11:48:54.867Z,43.32
2022-08-26T11:49:54.849Z,43.63
2022-08-26T11:50:54.832Z,43.71
2022-08-26T11:51:54.813Z,43.91
2022-08-26T11:52:54.851Z,43.71
2022-08-26T11:53:54.779Z,43.03
2022-08-26T11:54:54.778Z,43.71
2022-08-26T11:55:54.741Z,43.13
2022-08-26T11:56:54.725Z,44.62
2022-08-26T11:57:54.730Z,43.15
2022-08-26T11:58:54.706Z,43.46
2022-08-26T11:59:54.674Z,43.58
2022-08-26T12:00:54.655Z,45.98
2022-08-26T12:01:54.638Z,45.59
2022-08-26T12:02:54.643Z,45.56
2022-08-26T12:03:54.644Z,45.68
2022-08-26T12:04:54.644Z,46.64
2022-08-26T12:05:54.568Z,46.15
2022-08-26T12:06:54.547Z,45.86
2022-08-26T12:07:54.556Z,46.66
2022-08-26T12:08:54.514Z,46.95
2022-08-26T12:09:54.490Z,46.47
2022-08-26T12:10:54.477Z,47.08
2022-08-26T12:11:55.632Z,47.17
2022-08-26T12:12:54.467Z,47.45
2022-08-26T12:13:54.425Z,47.17
2022-08-26T12:14:54.406Z,47.16
2022-08-26T12:15:56.000Z,47.16
2022-08-26T12:16:54.456Z,47.16
2022-08-26T12:17:54.751Z,46.95
2022-08-26T12:18:54.339Z,47.16
2022-08-26T12:19:54.311Z,46.37
2022-08-26T12:20:54.301Z,46.27
2022-08-26T12:21:54.285Z,46.86
2022-08-26T12:22:54.284Z,46.91
2022-08-26T12:23:54.241Z,48.72
2022-08-26T12:24:54.225Z,49.82
2022-08-26T12:25:54.208Z,49.60
2022-08-26T12:26:54.187Z,48.33
2022-08-26T12:27:54.224Z,48.82
2022-08-26T12:28:54.154Z,48.72
2022-08-26T12:29:54.129Z,48.79
2022-08-26T12:30:54.113Z,47.22
2022-08-26T12:31:54.135Z,48.89
2022-08-26T12:32:57.697Z,49.19
2022-08-26T12:33:54.057Z,48.38
2022-08-26T12:34:54.067Z,48.65
2022-08-26T12:35:56.351Z,48.16
2022-08-26T12:36:55.031Z,48.85
2022-08-26T12:37:54.051Z,47.35
2022-08-26T12:38:58.001Z,46.76
2022-08-26T12:39:54.048Z,47.25
2022-08-26T12:40:53.935Z,46.47
2022-08-26T12:41:53.928Z,46.08
2022-08-26T12:42:53.993Z,46.76
2022-08-26T12:43:53.889Z,46.86
2022-08-26T12:44:54.719Z,47.06
2022-08-26T12:45:53.873Z,47.06
2022-08-26T12:46:53.964Z,47.16
2022-08-26T12:47:54.052Z,46.56
2022-08-26T12:48:53.906Z,47.35
2022-08-26T12:49:53.780Z,47.13
2022-08-26T12:50:53.761Z,46.74
2022-08-26T12:51:53.733Z,47.42
2022-08-26T12:52:54.750Z,47.72